Harderwijk, Netherlands
Current Conditions -  °F | °C
As of 5:25 AM on Thursday 23 Oct 2014 (Local Time) from EHDL Reporting Station
Haze Haze  
Wind Chill: 45°   Ceiling: 4400
Heat Index: 48°   Visibility: 1.9mi
Dew Point: 48°   Wind: 7mph
Humidity: 100%   Direction: 200°SSW
Pressure: 30.15"   Gusts: NA
Location:  52.34°N, 5.62°E
Report Text: EHDL 230325Z AUTO 20006KT 3100 BR FEW022 BKN044 OVC098 09/09 Q1021 YLO
Loading
Personal Weather Stations






























Interactive Weather Map
Tropical Storm Tracking
New forecast layout! Learn more

10-Day Weather Forecast

Advertisements
Track Severe Weather on mobile